createdAt,value
2022-08-21T00:00:23.745Z,10.55
2022-08-21T00:03:07.052Z,11.15
2022-08-21T00:05:38.170Z,10.23
2022-08-21T00:08:06.486Z,10.50
2022-08-21T00:10:33.986Z,10.40
2022-08-21T00:13:03.928Z,9.82
2022-08-21T00:15:33.662Z,10.25
2022-08-21T00:18:01.646Z,10.38
2022-08-21T00:20:29.692Z,10.43
2022-08-21T00:22:57.358Z,10.35
2022-08-21T00:25:28.924Z,9.85
2022-08-21T00:27:57.072Z,10.20
2022-08-21T00:30:26.155Z,10.05
2022-08-21T00:32:54.865Z,10.82
2022-08-21T00:35:26.411Z,10.18
2022-08-21T00:37:53.799Z,9.07
2022-08-21T00:40:29.477Z,10.27
2022-08-21T00:42:56.925Z,8.93
2022-08-21T00:45:25.014Z,9.93
2022-08-21T00:47:55.323Z,9.23
2022-08-21T00:50:24.089Z,8.73
2022-08-21T00:52:53.687Z,7.60
2022-08-21T00:55:23.706Z,7.50
2022-08-21T00:57:54.605Z,8.02
2022-08-21T01:00:33.140Z,7.20
2022-08-21T01:03:02.335Z,7.90
2022-08-21T01:05:34.864Z,7.85
2022-08-21T01:08:05.048Z,7.35
2022-08-21T01:10:33.299Z,7.32
2022-08-21T01:13:01.270Z,7.25
2022-08-21T01:15:38.151Z,7.07
2022-08-21T01:18:08.888Z,7.18
2022-08-21T01:20:37.339Z,7.35
2022-08-21T01:23:06.156Z,6.28
2022-08-21T01:25:35.544Z,6.68
2022-08-21T01:28:10.851Z,7.05
2022-08-21T01:30:40.013Z,6.70
2022-08-21T01:33:07.464Z,7.18
2022-08-21T01:35:35.191Z,7.55
2022-08-21T01:38:03.051Z,6.65
2022-08-21T01:40:30.538Z,6.55
2022-08-21T01:42:58.126Z,6.20
2022-08-21T01:45:25.753Z,5.80
2022-08-21T01:47:53.502Z,5.25
2022-08-21T01:50:21.889Z,5.80
2022-08-21T01:52:49.809Z,5.88
2022-08-21T01:55:19.621Z,5.90
2022-08-21T01:57:48.578Z,6.10
2022-08-21T02:00:19.051Z,5.80
2022-08-21T02:02:46.669Z,5.95
2022-08-21T02:05:14.652Z,6.25
2022-08-21T02:07:46.185Z,5.85
2022-08-21T02:10:16.629Z,6.80
2022-08-21T02:12:43.963Z,5.70
2022-08-21T02:15:11.528Z,6.28
2022-08-21T02:17:47.025Z,6.82
2022-08-21T02:20:27.260Z,6.05
2022-08-21T02:22:55.544Z,6.35
2022-08-21T02:25:25.403Z,6.90
2022-08-21T02:27:53.807Z,6.47
2022-08-21T02:30:24.953Z,6.38
2022-08-21T02:32:52.377Z,6.80
2022-08-21T02:35:20.286Z,6.18
2022-08-21T02:37:55.429Z,6.72
2022-08-21T02:40:28.494Z,7.22
2022-08-21T02:42:56.477Z,7.10
2022-08-21T02:45:24.510Z,7.07
2022-08-21T02:48:02.811Z,7.60
2022-08-21T02:50:41.543Z,7.95
2022-08-21T02:53:12.187Z,8.15
2022-08-21T02:55:40.391Z,8.10
2022-08-21T02:58:09.443Z,7.38
2022-08-21T03:00:38.859Z,8.20
2022-08-21T03:03:07.566Z,7.95
2022-08-21T03:05:38.402Z,7.88
2022-08-21T03:08:11.556Z,8.02
2022-08-21T03:10:41.041Z,7.60
2022-08-21T03:13:09.332Z,7.88
2022-08-21T03:15:37.710Z,6.95
2022-08-21T03:18:06.567Z,5.78
2022-08-21T03:20:35.130Z,5.57
2022-08-21T03:23:07.651Z,4.68
2022-08-21T03:25:41.677Z,4.57
2022-08-21T03:28:13.267Z,4.07
2022-08-21T03:30:49.480Z,4.20
2022-08-21T03:33:17.803Z,3.80
2022-08-21T03:36:01.851Z,2.88
2022-08-21T03:38:31.844Z,2.53
2022-08-21T03:41:00.129Z,2.38
2022-08-21T03:43:31.163Z,1.50
2022-08-21T03:46:01.724Z,1.30
2022-08-21T03:48:29.317Z,1.00
2022-08-21T03:50:58.036Z,0.90
2022-08-21T03:53:26.165Z,0.95
2022-08-21T03:55:54.886Z,1.50
2022-08-21T03:58:25.598Z,0.97
2022-08-21T04:00:55.415Z,1.10
2022-08-21T04:03:22.887Z,0.90
2022-08-21T04:05:50.241Z,1.17
2022-08-21T04:08:21.311Z,0.80
2022-08-21T04:10:52.010Z,1.33
2022-08-21T04:13:19.812Z,1.40
2022-08-21T04:15:47.669Z,1.43
2022-08-21T04:18:14.963Z,1.97
2022-08-21T04:20:45.357Z,1.60
2022-08-21T04:23:23.685Z,2.40
2022-08-21T04:25:52.616Z,2.00
2022-08-21T04:28:20.363Z,3.03
2022-08-21T04:30:48.027Z,2.27
2022-08-21T04:33:15.859Z,2.73
2022-08-21T04:35:43.991Z,2.70
2022-08-21T04:38:11.356Z,3.30
2022-08-21T04:40:38.889Z,2.50
2022-08-21T04:43:09.679Z,2.40
2022-08-21T04:45:43.177Z,2.50
2022-08-21T04:48:14.253Z,2.03
2022-08-21T04:50:44.465Z,2.33
2022-08-21T04:53:40.248Z,2.93
2022-08-21T04:56:12.672Z,2.20
2022-08-21T04:58:43.055Z,2.17
2022-08-21T05:01:15.008Z,2.07
2022-08-21T05:03:43.677Z,2.83
2022-08-21T05:06:16.822Z,2.07
2022-08-21T05:10:24.406Z,2.80
2022-08-21T05:12:52.217Z,1.90
2022-08-21T05:15:19.773Z,1.67
2022-08-21T05:17:52.548Z,1.50
2022-08-21T05:20:31.062Z,1.30
2022-08-21T05:22:59.276Z,1.10
2022-08-21T05:25:28.188Z,1.10
2022-08-21T05:27:58.228Z,1.20
2022-08-21T05:30:29.570Z,1.07
2022-08-21T05:33:03.540Z,1.10
2022-08-21T05:35:31.634Z,1.10
2022-08-21T05:38:18.349Z,0.93
2022-08-21T05:40:47.888Z,0.93
2022-08-21T05:43:15.958Z,0.67
2022-08-21T05:45:46.010Z,0.70
2022-08-21T05:48:19.975Z,0.70
2022-08-21T05:50:49.484Z,0.80
2022-08-21T05:53:18.607Z,0.80
2022-08-21T05:55:47.211Z,0.90
2022-08-21T05:58:20.508Z,1.00
2022-08-21T06:00:50.241Z,0.80
2022-08-21T06:03:27.618Z,1.03
2022-08-21T06:05:55.784Z,0.83
2022-08-21T06:08:26.265Z,1.20
2022-08-21T06:10:55.204Z,0.80
2022-08-21T06:13:23.392Z,0.90
2022-08-21T06:15:52.092Z,1.00
2022-08-21T06:18:19.695Z,1.37
2022-08-21T06:20:47.083Z,1.17
2022-08-21T06:23:14.463Z,1.13
2022-08-21T06:25:42.006Z,1.57
2022-08-21T06:28:12.020Z,1.40
2022-08-21T06:30:41.222Z,1.40
2022-08-21T06:33:08.869Z,1.53
2022-08-21T06:35:37.157Z,1.40
2022-08-21T06:38:09.409Z,1.37
2022-08-21T06:40:37.104Z,1.20
2022-08-21T06:43:15.015Z,1.07
2022-08-21T06:45:43.917Z,1.10
2022-08-21T06:48:14.540Z,0.80
2022-08-21T06:50:44.595Z,1.20
2022-08-21T06:53:13.926Z,1.00
2022-08-21T06:55:43.364Z,0.80
2022-08-21T06:58:11.754Z,0.70
2022-08-21T07:00:47.149Z,0.80
2022-08-21T07:03:20.583Z,0.63
2022-08-21T07:05:48.130Z,0.97
2022-08-21T07:08:15.978Z,0.90
2022-08-21T07:10:43.758Z,0.80
2022-08-21T07:13:11.112Z,0.90
2022-08-21T07:15:38.739Z,1.00
2022-08-21T07:18:06.676Z,0.63
2022-08-21T07:20:34.985Z,0.77
2022-08-21T07:23:06.265Z,0.63
2022-08-21T07:25:33.796Z,0.70
2022-08-21T07:28:01.202Z,0.80
2022-08-21T07:30:29.141Z,1.03
2022-08-21T07:32:57.315Z,0.80
2022-08-21T07:35:26.319Z,1.03
2022-08-21T07:37:56.490Z,0.97
2022-08-21T07:40:24.455Z,0.97
2022-08-21T07:42:53.369Z,0.77
2022-08-21T07:45:22.900Z,0.77
2022-08-21T07:47:53.036Z,0.73
2022-08-21T07:50:24.527Z,0.60
2022-08-21T07:52:52.341Z,1.03
2022-08-21T07:55:28.492Z,1.23
2022-08-21T07:57:55.934Z,0.90
2022-08-21T08:00:26.227Z,0.90
2022-08-21T08:02:56.476Z,0.80
2022-08-21T08:05:27.322Z,0.80
2022-08-21T08:07:55.877Z,0.90
2022-08-21T08:10:24.366Z,0.63
2022-08-21T08:12:53.533Z,0.67
2022-08-21T08:15:25.460Z,0.57
2022-08-21T08:17:53.662Z,0.73
2022-08-21T08:20:21.356Z,0.93
2022-08-21T08:22:50.303Z,1.00
2022-08-21T08:25:18.954Z,2.00
2022-08-21T08:27:46.295Z,2.33
2022-08-21T08:30:16.217Z,2.47
2022-08-21T08:32:43.998Z,2.97
2022-08-21T08:35:12.628Z,3.10
2022-08-21T08:37:41.923Z,2.67
2022-08-21T08:40:15.555Z,3.10
2022-08-21T08:42:44.129Z,3.87
2022-08-21T08:45:15.294Z,3.40
2022-08-21T08:47:52.298Z,3.27
2022-08-21T08:50:54.234Z,3.87
2022-08-21T08:53:26.794Z,3.83
2022-08-21T08:55:54.920Z,3.40
2022-08-21T08:58:45.065Z,3.40
2022-08-21T09:01:18.739Z,3.67
2022-08-21T09:03:53.624Z,3.60
2022-08-21T09:06:54.781Z,3.80
2022-08-21T09:09:43.591Z,3.97
2022-08-21T09:12:32.201Z,4.33
2022-08-21T09:15:24.867Z,4.10
2022-08-21T09:18:11.059Z,4.47
2022-08-21T09:21:03.275Z,4.40
2022-08-21T09:23:58.003Z,4.10
2022-08-21T09:26:28.553Z,4.23
2022-08-21T09:28:59.937Z,4.40
2022-08-21T09:31:33.916Z,4.10
2022-08-21T09:34:08.266Z,4.37
2022-08-21T09:36:50.659Z,3.40
2022-08-21T09:39:42.594Z,4.07
2022-08-21T09:42:22.281Z,3.20
2022-08-21T09:44:49.865Z,3.00
2022-08-21T09:47:25.064Z,3.23
2022-08-21T09:49:54.795Z,3.80
2022-08-21T09:52:25.984Z,3.33
2022-08-21T09:54:56.344Z,3.70
2022-08-21T09:57:46.362Z,3.93
2022-08-21T10:00:31.137Z,3.30
2022-08-21T10:03:10.451Z,3.77
2022-08-21T10:05:40.440Z,3.30
2022-08-21T10:08:19.297Z,3.50
2022-08-21T10:10:47.025Z,3.23
2022-08-21T10:13:19.661Z,2.90
2022-08-21T10:15:57.148Z,3.63
2022-08-21T10:19:02.713Z,2.70
2022-08-21T10:21:55.862Z,2.87
2022-08-21T10:24:33.856Z,3.20
2022-08-21T10:27:16.866Z,2.93
2022-08-21T10:29:58.439Z,3.30
2022-08-21T10:32:34.775Z,3.53
2022-08-21T10:35:19.486Z,3.30
2022-08-21T10:38:23.437Z,3.63
2022-08-21T10:41:30.196Z,3.20
2022-08-21T10:44:34.509Z,3.20
2022-08-21T10:47:20.280Z,3.93
2022-08-21T10:50:12.326Z,3.60
2022-08-21T10:53:05.970Z,2.97
2022-08-21T10:55:39.061Z,3.20
2022-08-21T10:58:12.513Z,2.83
2022-08-21T11:00:55.092Z,3.70
2022-08-21T11:03:30.484Z,3.57
2022-08-21T11:06:20.692Z,3.07
2022-08-21T11:09:10.464Z,3.20
2022-08-21T11:12:10.896Z,3.77
2022-08-21T11:14:58.601Z,2.63
2022-08-21T11:17:38.336Z,3.17
2022-08-21T11:20:13.815Z,2.93
2022-08-21T11:23:04.658Z,3.27
2022-08-21T11:26:13.891Z,3.07
2022-08-21T11:28:56.149Z,3.00
2022-08-21T11:31:38.992Z,3.03
2022-08-21T11:34:12.778Z,3.13
2022-08-21T11:36:47.362Z,3.03
2022-08-21T11:39:17.554Z,2.70
2022-08-21T11:42:14.024Z,2.80
2022-08-21T11:45:20.421Z,3.00
2022-08-21T11:47:55.440Z,2.90
2022-08-21T11:50:35.878Z,2.93
2022-08-21T11:53:48.903Z,3.07
2022-08-21T11:56:46.333Z,2.83
2022-08-21T11:59:22.327Z,2.60
2022-08-21T12:01:52.249Z,2.90
2022-08-21T12:04:43.475Z,3.00
2022-08-21T12:07:19.270Z,3.00
2022-08-21T12:09:55.919Z,2.60
2022-08-21T12:12:35.682Z,2.57
2022-08-21T12:15:21.659Z,3.07
2022-08-21T12:18:21.543Z,3.13
2022-08-21T12:21:01.423Z,2.83
2022-08-21T12:23:54.092Z,2.83
2022-08-21T12:26:33.988Z,2.60
2022-08-21T12:29:18.540Z,2.83
2022-08-21T12:31:52.581Z,3.20
2022-08-21T12:34:22.168Z,3.10
2022-08-21T12:37:03.334Z,3.27
2022-08-21T12:39:36.512Z,3.23
2022-08-21T12:42:20.595Z,3.30
2022-08-21T12:45:21.735Z,3.37
2022-08-21T12:47:49.204Z,3.20
2022-08-21T12:50:30.434Z,3.17
2022-08-21T12:53:25.372Z,3.40
2022-08-21T12:55:54.880Z,3.20
2022-08-21T12:58:25.222Z,3.10
2022-08-21T13:00:57.241Z,2.90
2022-08-21T13:03:25.772Z,3.00
2022-08-21T13:05:54.974Z,2.70
2022-08-21T13:08:24.735Z,2.83
2022-08-21T13:11:13.734Z,2.70
2022-08-21T13:13:46.807Z,2.43
2022-08-21T13:16:29.337Z,3.03
2022-08-21T13:19:02.411Z,2.47
2022-08-21T13:21:35.751Z,2.90
2022-08-21T13:24:40.734Z,2.47
2022-08-21T13:27:03.886Z,2.97
2022-08-21T13:29:38.696Z,3.23
2022-08-21T13:32:08.265Z,2.80
2022-08-21T13:34:38.334Z,3.17
2022-08-21T13:37:08.566Z,2.67
2022-08-21T13:39:36.149Z,3.50
2022-08-21T13:42:12.427Z,3.13
2022-08-21T13:44:48.110Z,2.87
2022-08-21T13:47:18.551Z,3.10
2022-08-21T13:49:49.255Z,2.70
2022-08-21T13:52:27.005Z,3.00
2022-08-21T13:55:10.114Z,3.37
2022-08-21T13:57:39.553Z,2.37
2022-08-21T14:00:21.010Z,2.63
2022-08-21T14:02:53.623Z,2.80
2022-08-21T14:05:31.675Z,2.80
2022-08-21T14:08:08.319Z,2.80
2022-08-21T14:10:43.065Z,2.87
2022-08-21T14:13:23.330Z,2.90
2022-08-21T14:15:59.067Z,2.77
2022-08-21T14:21:34.632Z,2.37
2022-08-21T14:24:29.200Z,3.10
2022-08-21T14:27:00.522Z,2.83
2022-08-21T14:29:52.827Z,2.70
2022-08-21T14:32:32.888Z,2.67
2022-08-21T14:35:00.894Z,2.93
2022-08-21T14:37:29.643Z,2.90
2022-08-21T14:43:27.365Z,3.49
2022-08-21T14:45:55.842Z,3.00
2022-08-21T14:48:23.422Z,3.07
2022-08-21T14:50:50.701Z,3.80
2022-08-21T14:53:18.558Z,3.60
2022-08-21T14:56:04.129Z,3.57
2022-08-21T14:58:31.888Z,2.97
2022-08-21T15:01:00.518Z,3.83
2022-08-21T15:03:27.795Z,3.53
2022-08-21T15:05:55.690Z,3.33
2022-08-21T15:08:23.541Z,3.57
2022-08-21T15:11:10.595Z,3.03
2022-08-21T15:13:38.908Z,2.83
2022-08-21T15:16:06.754Z,2.97
2022-08-21T15:18:34.133Z,3.63
2022-08-21T15:21:01.623Z,3.70
2022-08-21T15:23:30.069Z,3.63
2022-08-21T15:25:59.789Z,3.30
2022-08-21T15:28:31.514Z,4.40
2022-08-21T15:31:01.883Z,4.70
2022-08-21T15:33:29.982Z,3.97
2022-08-21T15:41:38.685Z,4.10
2022-08-21T15:44:06.353Z,3.63
2022-08-21T15:46:33.938Z,3.33
2022-08-21T15:49:01.285Z,3.97
2022-08-21T15:51:28.853Z,3.80
2022-08-21T15:53:56.395Z,3.67
2022-08-21T15:56:27.759Z,4.23
2022-08-21T15:59:01.913Z,4.50
2022-08-21T16:01:35.861Z,4.30
2022-08-21T16:04:17.391Z,4.87
2022-08-21T16:06:54.049Z,4.90
2022-08-21T16:09:22.846Z,4.70
2022-08-21T16:11:50.667Z,3.97
2022-08-21T16:14:18.821Z,4.53
2022-08-21T16:16:46.943Z,4.80
2022-08-21T16:19:14.976Z,4.73
2022-08-21T16:21:42.505Z,4.70
2022-08-21T16:24:10.146Z,5.07
2022-08-21T16:26:37.822Z,4.87
2022-08-21T16:29:06.910Z,5.50
2022-08-21T16:31:34.993Z,4.90
2022-08-21T16:34:03.040Z,5.80
2022-08-21T16:36:30.479Z,5.10
2022-08-21T16:38:59.015Z,5.40
2022-08-21T16:41:30.882Z,5.50
2022-08-21T16:43:58.829Z,4.83
2022-08-21T16:46:26.740Z,5.97
2022-08-21T16:48:55.336Z,5.67
2022-08-21T16:51:23.043Z,7.90
2022-08-21T16:53:50.443Z,7.37
2022-08-21T16:56:18.870Z,6.87
2022-08-21T16:58:49.321Z,6.33
2022-08-21T17:01:21.694Z,6.40
2022-08-21T17:03:51.614Z,5.63
2022-08-21T17:06:21.345Z,7.00
2022-08-21T17:08:52.429Z,5.50
2022-08-21T17:11:36.808Z,6.10
2022-08-21T17:14:20.220Z,5.97
2022-08-21T17:16:54.959Z,5.27
2022-08-21T17:19:23.314Z,6.23
2022-08-21T17:21:50.692Z,5.70
2022-08-21T17:24:18.265Z,5.77
2022-08-21T17:26:46.745Z,6.50
2022-08-21T17:32:15.897Z,6.70
2022-08-21T17:34:43.589Z,6.83
2022-08-21T17:37:11.057Z,6.70
2022-08-21T17:39:38.455Z,7.40
2022-08-21T17:42:10.515Z,7.10
2022-08-21T17:44:39.622Z,7.43
2022-08-21T17:47:09.469Z,7.13
2022-08-21T17:49:37.103Z,7.27
2022-08-21T17:52:06.329Z,8.03
2022-08-21T17:54:34.835Z,7.57
2022-08-21T17:57:02.543Z,8.00
2022-08-21T17:59:30.013Z,8.00
2022-08-21T18:02:02.243Z,7.80
2022-08-21T18:04:30.709Z,8.50
2022-08-21T18:06:58.782Z,8.43
2022-08-21T18:09:29.426Z,8.07
2022-08-21T18:11:59.012Z,8.13
2022-08-21T18:14:32.856Z,7.93
2022-08-21T18:17:01.450Z,8.23
2022-08-21T18:19:28.850Z,7.70
2022-08-21T18:22:00.512Z,8.00
2022-08-21T18:24:30.240Z,7.97
2022-08-21T18:26:57.950Z,8.87
2022-08-21T18:29:25.280Z,8.00
2022-08-21T18:31:53.069Z,9.10
2022-08-21T18:34:32.139Z,7.87
2022-08-21T18:36:59.622Z,8.27
2022-08-21T18:39:37.139Z,7.80
2022-08-21T18:42:11.065Z,8.10
2022-08-21T18:44:39.870Z,7.23
2022-08-21T18:47:14.758Z,7.57
2022-08-21T18:49:43.013Z,7.37
2022-08-21T18:52:10.826Z,7.23
2022-08-21T18:54:50.152Z,7.17
2022-08-21T18:57:19.385Z,6.70
2022-08-21T18:59:48.618Z,6.47
2022-08-21T19:02:16.689Z,6.50
2022-08-21T19:04:45.096Z,6.63
2022-08-21T19:07:14.176Z,7.80
2022-08-21T19:09:52.727Z,5.83
2022-08-21T19:12:30.410Z,6.10
2022-08-21T19:14:59.551Z,5.30
2022-08-21T19:17:28.495Z,5.63
2022-08-21T19:20:01.881Z,4.87
2022-08-21T19:22:29.209Z,3.93
2022-08-21T19:24:56.612Z,4.50
2022-08-21T19:27:24.169Z,4.17
2022-08-21T19:29:51.980Z,3.80
2022-08-21T19:32:21.249Z,4.17
2022-08-21T19:34:51.132Z,4.07
2022-08-21T19:37:20.732Z,3.90
2022-08-21T19:42:36.730Z,4.10
2022-08-21T19:45:06.429Z,3.60
2022-08-21T19:47:34.065Z,3.60
2022-08-21T19:50:17.586Z,3.50
2022-08-21T19:55:37.043Z,3.87
2022-08-21T19:58:06.210Z,3.77
2022-08-21T20:00:33.612Z,4.23
2022-08-21T20:03:01.215Z,3.80
2022-08-21T20:05:39.467Z,4.23
2022-08-21T20:08:11.837Z,3.63
2022-08-21T20:10:49.806Z,3.77
2022-08-21T20:13:22.183Z,3.60
2022-08-21T20:15:56.776Z,3.70
2022-08-21T20:21:13.653Z,3.80
2022-08-21T20:23:48.765Z,4.10
2022-08-21T20:26:17.532Z,3.83
2022-08-21T20:28:50.495Z,3.80
2022-08-21T20:31:20.101Z,3.90
2022-08-21T20:33:49.634Z,3.67
2022-08-21T20:36:18.369Z,3.90
2022-08-21T20:38:48.179Z,4.60
2022-08-21T20:44:08.299Z,4.30
2022-08-21T20:46:40.360Z,4.00
2022-08-21T20:49:09.684Z,4.90
2022-08-21T20:51:45.729Z,4.57
2022-08-21T20:54:33.722Z,4.47
2022-08-21T20:57:04.093Z,4.10
2022-08-21T20:59:34.152Z,3.73
2022-08-21T21:02:13.282Z,4.37
2022-08-21T21:04:48.520Z,4.13
2022-08-21T21:07:28.084Z,4.23
2022-08-21T21:09:57.781Z,4.27
2022-08-21T21:12:40.501Z,4.50
2022-08-21T21:15:14.816Z,4.80
2022-08-21T21:17:53.059Z,5.03
2022-08-21T21:20:29.473Z,6.37
2022-08-21T21:23:14.573Z,5.87
2022-08-21T21:25:52.604Z,5.07
2022-08-21T21:28:43.094Z,5.87
2022-08-21T21:31:11.787Z,5.50
2022-08-21T21:33:40.269Z,5.03
2022-08-21T21:36:25.128Z,5.00
2022-08-21T21:39:02.476Z,5.40
2022-08-21T21:41:35.621Z,4.90
2022-08-21T21:44:38.932Z,5.03
2022-08-21T21:47:25.450Z,5.23
2022-08-21T21:50:22.230Z,4.87
2022-08-21T21:53:19.707Z,6.77
2022-08-21T21:56:23.274Z,5.30
2022-08-21T21:59:18.901Z,5.73
2022-08-21T22:02:16.263Z,4.70
2022-08-21T22:05:09.496Z,5.50
2022-08-21T22:08:07.784Z,4.47
2022-08-21T22:10:53.306Z,4.27
2022-08-21T22:13:31.018Z,4.50
2022-08-21T22:16:02.822Z,4.63
2022-08-21T22:18:44.932Z,4.80
2022-08-21T22:21:24.893Z,4.67
2022-08-21T22:23:57.629Z,5.60
2022-08-21T22:26:39.944Z,5.13
2022-08-21T22:29:17.532Z,4.83
2022-08-21T22:32:00.164Z,5.40
2022-08-21T22:34:29.120Z,4.93
2022-08-21T22:37:00.153Z,4.67
2022-08-21T22:39:54.048Z,5.07
2022-08-21T22:42:24.799Z,5.27
2022-08-21T22:45:02.189Z,5.10
2022-08-21T22:47:52.935Z,5.47
2022-08-21T22:50:25.934Z,4.67
2022-08-21T22:53:08.931Z,4.67
2022-08-21T22:55:43.634Z,5.07
2022-08-21T22:58:19.918Z,4.90
2022-08-21T23:01:08.586Z,5.07
2022-08-21T23:03:52.232Z,6.23
2022-08-21T23:06:46.554Z,6.13
2022-08-21T23:09:28.941Z,5.47
2022-08-21T23:12:21.024Z,5.20
2022-08-21T23:14:54.620Z,5.73
2022-08-21T23:17:50.012Z,5.50
2022-08-21T23:20:26.398Z,5.80
2022-08-21T23:23:14.803Z,5.33
2022-08-21T23:26:10.715Z,5.60
2022-08-21T23:29:24.664Z,4.90
2022-08-21T23:32:18.971Z,4.70
2022-08-21T23:35:17.949Z,4.80
2022-08-21T23:38:09.296Z,5.13
2022-08-21T23:40:50.593Z,5.07
2022-08-21T23:43:38.947Z,5.57
2022-08-21T23:46:44.159Z,4.70
2022-08-21T23:49:17.743Z,3.77
2022-08-21T23:51:48.105Z,3.90
2022-08-21T23:54:27.287Z,3.70
2022-08-21T23:57:02.453Z,2.90
2022-08-21T23:59:46.159Z,3.77
